Wednesday, October 18, 2017, 3:39 AM EDT
Back to Local

KHYA, Hyannis Barnstable Boardmn

Location: West Yarmouth, MA, United States Lat: 41.667
Local Time: 3:39 AM EDT ( 7:39 GMT) Lon: -70.267
Time Zone: US/Eastern Elev: 52 ft

Show me the last for .
Show Decoded

2017-10-18 02:56 METAR KHYA 180656Z AUTO 00000KT 10SM CLR 06/05 A3023 RMK AO2 SLP236 T00610050 =
2017-10-18 01:56 METAR KHYA 180556Z AUTO 27003KT 10SM CLR 09/06 A3024 RMK AO2 SLP240 T00940056
                 10106 20050 56007 =
2017-10-18 00:56 METAR KHYA 180456Z AUTO 24007KT 10SM CLR 10/06 A3024 RMK AO2 SLP241 T01000061
                 401280050 =
2017-10-17 23:56 METAR KHYA 180356Z AUTO 23008KT 10SM CLR 10/06 A3025 RMK AO2 SLP244 T01000061 =
2017-10-17 22:56 METAR KHYA 180256Z AUTO 00000KT 10SM CLR 06/04 A3026 RMK AO2 SLP247 T00560039
                 50005 =
2017-10-17 21:56 METAR KHYA 180156Z 22003KT 10SM CLR 07/04 A3026 RMK AO2 SLP248 T00670044 =
2017-10-17 20:56 METAR KHYA 180056Z 00000KT 10SM CLR 06/03 A3026 RMK AO2 SLP247 T00560033 =
2017-10-17 19:56 METAR KHYA 172356Z 21005KT 10SM CLR 07/04 A3024 RMK AO2 SLP242 T00720039 10128
                 20067 53005 =
2017-10-17 18:56 METAR KHYA 172256Z 00000KT 10SM CLR 07/04 A3025 RMK AO2 SLP243 T00720039 =
2017-10-17 17:56 METAR KHYA 172156Z 17003KT 10SM CLR 10/03 A3023 RMK AO2 SLP236 T01000033 =
2017-10-17 17:19 METAR KHYA 172119Z 20007KT 10SM CLR 11/02 A3023 RMK AO2 T01110022 =
2017-10-17 16:56 METAR KHYA 172056Z 15003KT 10SM CLR 12/03 A3023 RMK AO2 SLP237 T01170028 58004 =
2017-10-17 15:56 METAR KHYA 171956Z 03004KT 10SM CLR 12/02 A3024 RMK AO2 SLP240 T01220022 =
2017-10-17 14:56 METAR KHYA 171856Z 35007KT 10SM CLR 12/03 A3024 RMK AO2 SLP240 T01220033 =
2017-10-17 13:56 METAR KHYA 171756Z 02007KT 10SM CLR 12/02 A3024 RMK AO2 SLP241 T01220022 10128
                 20100 58003 =
2017-10-17 12:56 METAR KHYA 171656Z 01010G15KT 10SM CLR 12/02 A3025 RMK AO2 SLP244 T01220017 =
2017-10-17 11:56 METAR KHYA 171556Z 34009KT 10SM CLR 12/02 A3025 RMK AO2 SLP246 T01220017 =
2017-10-17 10:56 METAR KHYA 171456Z 36010G18KT 10SM FEW041 12/02 A3025 RMK AO2 SLP245 T01220022
                 51010 =
2017-10-17 09:56 METAR KHYA 171356Z 02014G21KT 10SM CLR 12/02 A3025 RMK AO2 SLP244 T01170017 =
2017-10-17 08:56 METAR KHYA 171256Z 02011G19KT 10SM FEW044 11/01 A3024 RMK AO2 SLP242 T01060011 =
2017-10-17 07:56 METAR KHYA 171156Z 02011KT 10SM BKN045 10/01 A3022 RMK AO2 SLP234 70001
                 T01000006 10106 20094 51021 =
2017-10-17 06:56 METAR KHYA 171056Z 01015G21KT 10SM SCT046 09/01 A3020 RMK AO2 SLP226 T00940006 =
2017-10-17 05:56 METAR KHYA 170956Z 02012G18KT 10SM OVC046 09/01 A3018 RMK AO2 SLP221 T00940011 =
2017-10-17 04:56 METAR KHYA 170856Z AUTO 02010G20KT 10SM OVC042 10/02 A3016 RMK AO2 SLP213
                 T01000022 53016 =
2017-10-17 03:56 METAR KHYA 170756Z AUTO 36011G17KT 10SM OVC034 10/03 A3014 RMK AO2 SLP205
                 T01000033 =

Support USWX by starting your Amazon purchase here.